sensor_id;sensor_type;location;lat;lon;timestamp;pressure;altitude;pressure_sealevel;temperature;humidity
51229;BME280;37304;52.216;6.874;2022-10-30T00:02:45;101351.03;;;16.42;100.00
51229;BME280;37304;52.216;6.874;2022-10-30T00:07:49;101348.47;;;16.41;100.00
51229;BME280;37304;52.216;6.874;2022-10-30T00:12:49;101360.19;;;16.30;100.00
51229;BME280;37304;52.216;6.874;2022-10-30T00:17:50;101369.25;;;16.20;100.00
51229;BME280;37304;52.216;6.874;2022-10-30T00:22:50;101372.13;;;16.12;100.00
51229;BME280;37304;52.216;6.874;2022-10-30T00:27:50;101374.94;;;16.06;100.00
51229;BME280;37304;52.216;6.874;2022-10-30T00:32:51;101367.19;;;16.01;100.00
51229;BME280;37304;52.216;6.874;2022-10-30T00:37:51;101370.03;;;15.95;100.00
51229;BME280;37304;52.216;6.874;2022-10-30T00:42:51;101366.84;;;15.84;100.00
51229;BME280;37304;52.216;6.874;2022-10-30T00:47:54;101363.50;;;15.79;100.00
51229;BME280;37304;52.216;6.874;2022-10-30T00:53:06;101367.22;;;15.71;100.00
51229;BME280;37304;52.216;6.874;2022-10-30T00:58:08;101368.22;;;15.67;100.00
51229;BME280;37304;52.216;6.874;2022-10-30T01:03:09;101374.75;;;15.52;100.00
51229;BME280;37304;52.216;6.874;2022-10-30T01:08:10;101371.63;;;15.39;100.00
51229;BME280;37304;52.216;6.874;2022-10-30T01:13:11;101369.44;;;15.24;100.00
51229;BME280;37304;52.216;6.874;2022-10-30T01:18:24;101368.63;;;15.22;100.00
51229;BME280;37304;52.216;6.874;2022-10-30T01:40:22;101377.53;;;15.14;100.00
51229;BME280;37304;52.216;6.874;2022-10-30T01:50:58;101382.88;;;15.11;100.00
51229;BME280;37304;52.216;6.874;2022-10-30T01:56:38;101374.03;;;15.16;100.00
51229;BME280;37304;52.216;6.874;2022-10-30T02:01:43;101384.41;;;15.19;100.00
51229;BME280;37304;52.216;6.874;2022-10-30T02:06:44;101371.59;;;15.08;100.00
51229;BME280;37304;52.216;6.874;2022-10-30T02:11:45;101372.56;;;15.05;100.00
51229;BME280;37304;52.216;6.874;2022-10-30T02:16:49;101376.25;;;14.98;100.00
51229;BME280;37304;52.216;6.874;2022-10-30T02:21:51;101370.31;;;14.91;100.00
51229;BME280;37304;52.216;6.874;2022-10-30T02:26:51;101382.69;;;14.84;100.00
51229;BME280;37304;52.216;6.874;2022-10-30T02:31:51;101377.75;;;14.72;100.00
51229;BME280;37304;52.216;6.874;2022-10-30T02:36:52;101389.56;;;14.52;100.00
51229;BME280;37304;52.216;6.874;2022-10-30T02:41:52;101379.09;;;14.52;100.00
51229;BME280;37304;52.216;6.874;2022-10-30T02:46:53;101389.88;;;14.38;100.00
51229;BME280;37304;52.216;6.874;2022-10-30T02:51:53;101378.59;;;14.38;100.00
51229;BME280;37304;52.216;6.874;2022-10-30T02:56:53;101367.56;;;14.23;100.00
51229;BME280;37304;52.216;6.874;2022-10-30T03:01:54;101376.38;;;14.19;100.00
51229;BME280;37304;52.216;6.874;2022-10-30T03:06:54;101373.03;;;14.14;100.00
51229;BME280;37304;52.216;6.874;2022-10-30T03:11:54;101378.44;;;14.06;100.00
51229;BME280;37304;52.216;6.874;2022-10-30T03:16:55;101377.78;;;13.96;100.00
51229;BME280;37304;52.216;6.874;2022-10-30T03:21:55;101383.13;;;13.92;100.00
51229;BME280;37304;52.216;6.874;2022-10-30T03:26:55;101389.41;;;13.83;100.00
51229;BME280;37304;52.216;6.874;2022-10-30T03:31:56;101384.06;;;13.88;100.00
51229;BME280;37304;52.216;6.874;2022-10-30T03:36:56;101392.84;;;13.83;100.00
51229;BME280;37304;52.216;6.874;2022-10-30T03:41:56;101388.63;;;13.78;100.00
51229;BME280;37304;52.216;6.874;2022-10-30T03:46:57;101391.25;;;13.78;100.00
51229;BME280;37304;52.216;6.874;2022-10-30T03:51:57;101392.28;;;13.69;100.00
51229;BME280;37304;52.216;6.874;2022-10-30T03:56:57;101398.38;;;13.69;100.00
51229;BME280;37304;52.216;6.874;2022-10-30T04:01:58;101399.50;;;13.58;100.00
51229;BME280;37304;52.216;6.874;2022-10-30T04:06:58;101395.13;;;13.58;100.00
51229;BME280;37304;52.216;6.874;2022-10-30T04:11:59;101408.09;;;13.63;100.00
51229;BME280;37304;52.216;6.874;2022-10-30T04:16:59;101399.75;;;13.45;100.00
51229;BME280;37304;52.216;6.874;2022-10-30T04:21:59;101402.31;;;13.47;100.00
51229;BME280;37304;52.216;6.874;2022-10-30T04:26:59;101397.28;;;13.36;100.00
51229;BME280;37304;52.216;6.874;2022-10-30T04:32:00;101405.88;;;13.43;100.00
51229;BME280;37304;52.216;6.874;2022-10-30T04:37:00;101405.13;;;13.34;100.00
51229;BME280;37304;52.216;6.874;2022-10-30T04:42:00;101410.41;;;13.31;100.00
51229;BME280;37304;52.216;6.874;2022-10-30T04:47:01;101407.09;;;13.21;100.00
51229;BME280;37304;52.216;6.874;2022-10-30T04:52:01;101404.72;;;13.09;100.00
51229;BME280;37304;52.216;6.874;2022-10-30T04:57:01;101401.56;;;12.91;100.00
51229;BME280;37304;52.216;6.874;2022-10-30T05:02:02;101394.63;;;12.89;100.00
51229;BME280;37304;52.216;6.874;2022-10-30T05:07:02;101400.84;;;12.81;100.00
51229;BME280;37304;52.216;6.874;2022-10-30T05:12:03;101399.28;;;12.73;100.00
51229;BME280;37304;52.216;6.874;2022-10-30T05:17:03;101394.06;;;12.71;100.00
51229;BME280;37304;52.216;6.874;2022-10-30T05:22:03;101401.13;;;12.66;100.00
51229;BME280;37304;52.216;6.874;2022-10-30T05:27:04;101399.50;;;12.59;100.00
51229;BME280;37304;52.216;6.874;2022-10-30T05:32:04;101404.03;;;12.47;100.00
51229;BME280;37304;52.216;6.874;2022-10-30T05:37:05;101401.53;;;12.40;100.00
51229;BME280;37304;52.216;6.874;2022-10-30T05:42:05;101399.13;;;12.26;100.00
51229;BME280;37304;52.216;6.874;2022-10-30T05:47:05;101401.75;;;12.22;100.00
51229;BME280;37304;52.216;6.874;2022-10-30T05:52:05;101401.84;;;12.18;100.00
51229;BME280;37304;52.216;6.874;2022-10-30T05:57:06;101398.41;;;12.16;100.00
51229;BME280;37304;52.216;6.874;2022-10-30T06:02:06;101395.84;;;12.13;100.00
51229;BME280;37304;52.216;6.874;2022-10-30T06:07:06;101407.25;;;12.05;100.00
51229;BME280;37304;52.216;6.874;2022-10-30T06:12:07;101414.22;;;12.02;100.00
51229;BME280;37304;52.216;6.874;2022-10-30T06:17:07;101430.78;;;11.94;100.00
51229;BME280;37304;52.216;6.874;2022-10-30T06:22:08;101433.47;;;11.88;100.00
51229;BME280;37304;52.216;6.874;2022-10-30T06:27:08;101436.16;;;11.82;100.00
51229;BME280;37304;52.216;6.874;2022-10-30T06:32:08;101425.75;;;11.82;100.00
51229;BME280;37304;52.216;6.874;2022-10-30T06:37:09;101423.09;;;11.84;100.00
51229;BME280;37304;52.216;6.874;2022-10-30T06:42:09;101430.97;;;11.79;100.00
51229;BME280;37304;52.216;6.874;2022-10-30T06:47:09;101435.19;;;11.89;100.00
51229;BME280;37304;52.216;6.874;2022-10-30T06:52:10;101436.91;;;11.89;100.00
51229;BME280;37304;52.216;6.874;2022-10-30T06:57:10;101440.31;;;11.97;100.00
51229;BME280;37304;52.216;6.874;2022-10-30T07:02:10;101436.84;;;11.97;100.00
51229;BME280;37304;52.216;6.874;2022-10-30T07:07:12;101434.19;;;12.00;100.00
51229;BME280;37304;52.216;6.874;2022-10-30T07:12:13;101434.97;;;12.09;100.00
51229;BME280;37304;52.216;6.874;2022-10-30T07:17:13;101439.22;;;12.15;100.00
51229;BME280;37304;52.216;6.874;2022-10-30T07:22:14;101450.31;;;12.31;100.00
51229;BME280;37304;52.216;6.874;2022-10-30T07:27:14;101450.16;;;12.42;100.00
51229;BME280;37304;52.216;6.874;2022-10-30T07:32:14;101451.88;;;12.43;100.00
51229;BME280;37304;52.216;6.874;2022-10-30T07:37:14;101454.88;;;12.73;100.00
51229;BME280;37304;52.216;6.874;2022-10-30T07:42:15;101451.91;;;12.98;100.00
51229;BME280;37304;52.216;6.874;2022-10-30T07:47:15;101453.25;;;13.19;100.00
51229;BME280;37304;52.216;6.874;2022-10-30T07:52:15;101455.41;;;13.47;100.00
51229;BME280;37304;52.216;6.874;2022-10-30T07:57:16;101452.41;;;13.67;100.00
51229;BME280;37304;52.216;6.874;2022-10-30T08:02:16;101449.28;;;13.92;100.00
51229;BME280;37304;52.216;6.874;2022-10-30T08:07:16;101431.41;;;14.15;100.00
51229;BME280;37304;52.216;6.874;2022-10-30T08:12:18;101424.56;;;14.47;100.00
51229;BME280;37304;52.216;6.874;2022-10-30T08:17:19;101419.44;;;14.80;100.00
51229;BME280;37304;52.216;6.874;2022-10-30T08:22:20;101419.38;;;15.16;100.00
51229;BME280;37304;52.216;6.874;2022-10-30T08:27:20;101424.53;;;15.51;100.00
51229;BME280;37304;52.216;6.874;2022-10-30T08:32:21;101412.44;;;16.08;100.00
51229;BME280;37304;52.216;6.874;2022-10-30T08:37:21;101404.09;;;17.05;100.00
51229;BME280;37304;52.216;6.874;2022-10-30T08:42:21;101408.78;;;17.45;100.00
51229;BME280;37304;52.216;6.874;2022-10-30T08:47:22;101409.69;;;18.16;100.00
51229;BME280;37304;52.216;6.874;2022-10-30T08:52:22;101403.44;;;18.41;100.00
51229;BME280;37304;52.216;6.874;2022-10-30T08:57:22;101398.25;;;19.24;100.00
51229;BME280;37304;52.216;6.874;2022-10-30T09:02:23;101396.34;;;20.23;100.00
51229;BME280;37304;52.216;6.874;2022-10-30T09:07:23;101386.13;;;19.98;100.00
51229;BME280;37304;52.216;6.874;2022-10-30T09:12:23;101390.28;;;20.21;100.00
51229;BME280;37304;52.216;6.874;2022-10-30T09:17:24;101384.75;;;20.80;100.00
51229;BME280;37304;52.216;6.874;2022-10-30T09:22:25;101399.47;;;21.19;100.00
51229;BME280;37304;52.216;6.874;2022-10-30T09:27:25;101398.59;;;21.19;100.00
51229;BME280;37304;52.216;6.874;2022-10-30T09:32:26;101404.53;;;21.74;100.00
51229;BME280;37304;52.216;6.874;2022-10-30T09:37:26;101392.16;;;22.22;100.00
51229;BME280;37304;52.216;6.874;2022-10-30T09:42:43;101390.63;;;23.24;100.00
51229;BME280;37304;52.216;6.874;2022-10-30T09:59:04;101383.34;;;23.28;100.00
51229;BME280;37304;52.216;6.874;2022-10-30T10:04:27;101396.50;;;23.30;100.00
51229;BME280;37304;52.216;6.874;2022-10-30T10:09:32;101388.03;;;23.66;100.00
51229;BME280;37304;52.216;6.874;2022-10-30T10:14:40;101394.38;;;23.64;100.00
51229;BME280;37304;52.216;6.874;2022-10-30T10:19:56;101386.44;;;21.82;100.00
51229;BME280;37304;52.216;6.874;2022-10-30T10:24:58;101388.59;;;20.73;100.00
51229;BME280;37304;52.216;6.874;2022-10-30T10:30:19;101381.31;;;20.25;100.00
51229;BME280;37304;52.216;6.874;2022-10-30T10:35:58;101388.22;;;20.08;100.00
51229;BME280;37304;52.216;6.874;2022-10-30T10:41:13;101390.09;;;19.68;100.00
51229;BME280;37304;52.216;6.874;2022-10-30T10:52:20;101375.03;;;19.32;100.00
51229;BME280;37304;52.216;6.874;2022-10-30T10:57:28;101384.13;;;19.25;100.00
51229;BME280;37304;52.216;6.874;2022-10-30T11:02:39;101366.63;;;19.24;100.00
51229;BME280;37304;52.216;6.874;2022-10-30T11:07:48;101363.16;;;19.02;100.00
51229;BME280;37304;52.216;6.874;2022-10-30T11:12:49;101375.41;;;19.03;100.00
51229;BME280;37304;52.216;6.874;2022-10-30T11:18:07;101378.56;;;19.12;100.00
51229;BME280;37304;52.216;6.874;2022-10-30T11:23:40;101373.00;;;19.18;100.00
51229;BME280;37304;52.216;6.874;2022-10-30T11:33:54;101375.44;;;19.23;100.00
51229;BME280;37304;52.216;6.874;2022-10-30T11:38:56;101373.41;;;19.29;100.00
51229;BME280;37304;52.216;6.874;2022-10-30T11:44:09;101375.13;;;19.30;100.00
51229;BME280;37304;52.216;6.874;2022-10-30T11:49:25;101371.78;;;19.46;100.00
51229;BME280;37304;52.216;6.874;2022-10-30T11:54:27;101374.03;;;19.54;100.00
51229;BME280;37304;52.216;6.874;2022-10-30T11:59:27;101350.13;;;19.97;100.00
51229;BME280;37304;52.216;6.874;2022-10-30T12:04:28;101344.03;;;21.02;100.00
51229;BME280;37304;52.216;6.874;2022-10-30T12:09:40;101349.16;;;21.55;100.00
51229;BME280;37304;52.216;6.874;2022-10-30T12:14:41;101346.53;;;21.21;100.00
51229;BME280;37304;52.216;6.874;2022-10-30T12:19:53;101340.41;;;20.87;100.00
51229;BME280;37304;52.216;6.874;2022-10-30T12:24:55;101334.06;;;20.72;100.00
51229;BME280;37304;52.216;6.874;2022-10-30T12:30:22;101337.91;;;20.48;100.00
51229;BME280;37304;52.216;6.874;2022-10-30T12:36:00;101339.75;;;20.46;100.00
51229;BME280;37304;52.216;6.874;2022-10-30T12:46:25;101325.72;;;20.46;100.00
51229;BME280;37304;52.216;6.874;2022-10-30T12:51:50;101325.16;;;20.39;100.00
51229;BME280;37304;52.216;6.874;2022-10-30T12:57:06;101314.59;;;20.39;100.00
51229;BME280;37304;52.216;6.874;2022-10-30T13:02:18;101311.91;;;20.41;100.00
51229;BME280;37304;52.216;6.874;2022-10-30T13:12:25;101317.66;;;20.31;100.00
51229;BME280;37304;52.216;6.874;2022-10-30T13:17:28;101318.19;;;20.20;100.00
51229;BME280;37304;52.216;6.874;2022-10-30T13:27:57;101311.25;;;20.00;100.00
51229;BME280;37304;52.216;6.874;2022-10-30T13:38:47;101313.53;;;19.89;100.00
51229;BME280;37304;52.216;6.874;2022-10-30T13:43:58;101305.59;;;19.90;100.00
51229;BME280;37304;52.216;6.874;2022-10-30T13:49:08;101304.13;;;19.83;100.00
51229;BME280;37304;52.216;6.874;2022-10-30T13:54:14;101307.78;;;19.81;100.00
51229;BME280;37304;52.216;6.874;2022-10-30T14:05:22;101309.94;;;19.72;100.00
51229;BME280;37304;52.216;6.874;2022-10-30T14:10:49;101315.97;;;19.74;100.00
51229;BME280;37304;52.216;6.874;2022-10-30T14:15:59;101306.41;;;19.72;100.00
51229;BME280;37304;52.216;6.874;2022-10-30T14:26:44;101292.31;;;19.73;100.00
51229;BME280;37304;52.216;6.874;2022-10-30T14:31:45;101282.84;;;19.69;100.00
51229;BME280;37304;52.216;6.874;2022-10-30T14:36:49;101271.59;;;19.65;100.00
51229;BME280;37304;52.216;6.874;2022-10-30T14:47:14;101278.16;;;19.56;100.00
51229;BME280;37304;52.216;6.874;2022-10-30T14:52:44;101282.69;;;19.53;100.00
51229;BME280;37304;52.216;6.874;2022-10-30T15:13:33;101300.53;;;19.09;100.00
51229;BME280;37304;52.216;6.874;2022-10-30T15:18:33;101293.16;;;18.97;100.00
51229;BME280;37304;52.216;6.874;2022-10-30T15:23:35;101296.75;;;18.94;100.00
51229;BME280;37304;52.216;6.874;2022-10-30T15:28:37;101298.28;;;18.79;100.00
51229;BME280;37304;52.216;6.874;2022-10-30T15:33:39;101302.13;;;18.72;100.00
51229;BME280;37304;52.216;6.874;2022-10-30T15:38:39;101315.22;;;18.53;100.00
51229;BME280;37304;52.216;6.874;2022-10-30T15:43:40;101312.41;;;18.37;100.00
51229;BME280;37304;52.216;6.874;2022-10-30T15:48:44;101323.78;;;18.15;100.00
51229;BME280;37304;52.216;6.874;2022-10-30T15:53:57;101328.75;;;18.00;100.00
51229;BME280;37304;52.216;6.874;2022-10-30T15:59:02;101342.38;;;17.88;100.00
51229;BME280;37304;52.216;6.874;2022-10-30T16:04:12;101346.53;;;17.71;100.00
51229;BME280;37304;52.216;6.874;2022-10-30T16:09:13;101350.72;;;17.53;100.00
51229;BME280;37304;52.216;6.874;2022-10-30T16:14:25;101338.88;;;17.41;100.00
51229;BME280;37304;52.216;6.874;2022-10-30T16:19:28;101339.41;;;17.27;100.00
51229;BME280;37304;52.216;6.874;2022-10-30T16:24:32;101343.44;;;17.12;100.00
51229;BME280;37304;52.216;6.874;2022-10-30T16:29:33;101352.69;;;16.99;100.00
51229;BME280;37304;52.216;6.874;2022-10-30T16:34:36;101359.84;;;16.94;100.00
51229;BME280;37304;52.216;6.874;2022-10-30T16:39:38;101359.41;;;16.81;100.00
51229;BME280;37304;52.216;6.874;2022-10-30T16:44:38;101340.53;;;16.42;100.00
51229;BME280;37304;52.216;6.874;2022-10-30T16:49:46;101356.50;;;16.63;100.00
51229;BME280;37304;52.216;6.874;2022-10-30T16:54:52;101367.50;;;16.48;100.00
51229;BME280;37304;52.216;6.874;2022-10-30T16:59:58;101372.94;;;16.41;100.00
51229;BME280;37304;52.216;6.874;2022-10-30T17:05:21;101381.19;;;16.30;100.00
51229;BME280;37304;52.216;6.874;2022-10-30T17:10:42;101390.22;;;16.20;100.00
51229;BME280;37304;52.216;6.874;2022-10-30T17:15:42;101398.53;;;16.06;100.00
51229;BME280;37304;52.216;6.874;2022-10-30T17:20:43;101410.84;;;16.04;100.00
51229;BME280;37304;52.216;6.874;2022-10-30T17:25:43;101423.53;;;15.86;100.00
51229;BME280;37304;52.216;6.874;2022-10-30T17:30:44;101430.13;;;15.70;100.00
51229;BME280;37304;52.216;6.874;2022-10-30T17:35:44;101437.47;;;15.57;100.00
51229;BME280;37304;52.216;6.874;2022-10-30T17:40:45;101436.91;;;15.46;100.00
51229;BME280;37304;52.216;6.874;2022-10-30T17:45:45;101448.28;;;15.44;100.00
51229;BME280;37304;52.216;6.874;2022-10-30T17:50:46;101453.84;;;15.34;100.00
51229;BME280;37304;52.216;6.874;2022-10-30T17:56:10;101461.81;;;15.29;100.00
51229;BME280;37304;52.216;6.874;2022-10-30T18:01:15;101477.59;;;15.27;100.00
51229;BME280;37304;52.216;6.874;2022-10-30T18:06:25;101486.84;;;15.39;100.00
51229;BME280;37304;52.216;6.874;2022-10-30T18:11:26;101490.44;;;15.37;100.00
51229;BME280;37304;52.216;6.874;2022-10-30T18:16:27;101490.28;;;15.41;100.00
51229;BME280;37304;52.216;6.874;2022-10-30T18:21:28;101495.53;;;15.41;100.00
51229;BME280;37304;52.216;6.874;2022-10-30T18:26:30;101492.97;;;15.40;100.00
51229;BME280;37304;52.216;6.874;2022-10-30T18:31:31;101497.41;;;15.36;100.00
51229;BME280;37304;52.216;6.874;2022-10-30T18:36:31;101491.34;;;15.34;100.00
51229;BME280;37304;52.216;6.874;2022-10-30T18:41:36;101493.97;;;15.34;100.00
51229;BME280;37304;52.216;6.874;2022-10-30T18:46:37;59726.88;;;-147.28;100.00
51229;BME280;37304;52.216;6.874;2022-10-30T18:51:38;59726.88;;;-147.28;100.00
51229;BME280;37304;52.216;6.874;2022-10-30T18:56:38;59726.88;;;-147.28;100.00
51229;BME280;37304;52.216;6.874;2022-10-30T19:01:38;59726.88;;;-147.28;100.00
51229;BME280;37304;52.216;6.874;2022-10-30T19:06:39;59726.88;;;-147.28;100.00
51229;BME280;37304;52.216;6.874;2022-10-30T19:11:39;59726.88;;;-147.28;100.00
51229;BME280;37304;52.216;6.874;2022-10-30T19:16:40;59726.88;;;-147.28;100.00
51229;BME280;37304;52.216;6.874;2022-10-30T19:21:40;59726.88;;;-147.28;100.00
51229;BME280;37304;52.216;6.874;2022-10-30T19:26:40;59726.88;;;-147.28;100.00
51229;BME280;37304;52.216;6.874;2022-10-30T19:31:41;59726.88;;;-147.28;100.00
51229;BME280;37304;52.216;6.874;2022-10-30T19:36:41;59726.88;;;-147.28;100.00
51229;BME280;37304;52.216;6.874;2022-10-30T19:41:42;59726.88;;;-147.28;100.00
51229;BME280;37304;52.216;6.874;2022-10-30T19:46:42;59726.88;;;-147.28;100.00
51229;BME280;37304;52.216;6.874;2022-10-30T19:51:42;59726.88;;;-147.28;100.00
51229;BME280;37304;52.216;6.874;2022-10-30T19:56:43;59726.88;;;-147.28;100.00
51229;BME280;37304;52.216;6.874;2022-10-30T20:01:43;59726.88;;;-147.28;100.00
51229;BME280;37304;52.216;6.874;2022-10-30T20:06:43;59726.88;;;-147.28;100.00
51229;BME280;37304;52.216;6.874;2022-10-30T20:11:44;59726.88;;;-147.28;100.00
51229;BME280;37304;52.216;6.874;2022-10-30T20:16:44;59726.88;;;-147.28;100.00
51229;BME280;37304;52.216;6.874;2022-10-30T20:21:44;59726.88;;;-147.28;100.00
51229;BME280;37304;52.216;6.874;2022-10-30T20:26:44;59726.88;;;-147.28;100.00
51229;BME280;37304;52.216;6.874;2022-10-30T20:31:45;59726.88;;;-147.28;100.00
51229;BME280;37304;52.216;6.874;2022-10-30T20:36:45;59726.88;;;-147.28;100.00
51229;BME280;37304;52.216;6.874;2022-10-30T20:41:45;59726.88;;;-147.28;100.00
51229;BME280;37304;52.216;6.874;2022-10-30T20:46:46;59726.88;;;-147.28;100.00
51229;BME280;37304;52.216;6.874;2022-10-30T20:51:46;59726.88;;;-147.28;100.00
51229;BME280;37304;52.216;6.874;2022-10-30T20:56:47;59726.88;;;-147.28;100.00
51229;BME280;37304;52.216;6.874;2022-10-30T21:01:47;59726.88;;;-147.28;100.00
51229;BME280;37304;52.216;6.874;2022-10-30T21:06:47;59726.88;;;-147.28;100.00
51229;BME280;37304;52.216;6.874;2022-10-30T21:11:48;59726.88;;;-147.28;100.00
51229;BME280;37304;52.216;6.874;2022-10-30T21:16:48;59726.88;;;-147.28;100.00
51229;BME280;37304;52.216;6.874;2022-10-30T21:21:48;59726.88;;;-147.28;100.00
51229;BME280;37304;52.216;6.874;2022-10-30T21:26:49;59726.88;;;-147.28;100.00
51229;BME280;37304;52.216;6.874;2022-10-30T21:31:49;59726.88;;;-147.28;100.00
51229;BME280;37304;52.216;6.874;2022-10-30T21:36:49;59726.88;;;-147.28;100.00
51229;BME280;37304;52.216;6.874;2022-10-30T21:41:50;59726.88;;;-147.28;100.00
51229;BME280;37304;52.216;6.874;2022-10-30T21:46:50;59726.88;;;-147.28;100.00
51229;BME280;37304;52.216;6.874;2022-10-30T21:51:50;59726.88;;;-147.28;100.00
51229;BME280;37304;52.216;6.874;2022-10-30T21:56:51;59726.88;;;-147.28;100.00
51229;BME280;37304;52.216;6.874;2022-10-30T22:01:51;59726.88;;;-147.28;100.00
51229;BME280;37304;52.216;6.874;2022-10-30T22:06:51;59726.88;;;-147.28;100.00
51229;BME280;37304;52.216;6.874;2022-10-30T22:11:51;59726.88;;;-147.28;100.00
51229;BME280;37304;52.216;6.874;2022-10-30T22:16:52;59726.88;;;-147.28;100.00
51229;BME280;37304;52.216;6.874;2022-10-30T22:21:52;59726.88;;;-147.28;100.00
51229;BME280;37304;52.216;6.874;2022-10-30T22:26:52;59726.88;;;-147.28;100.00
51229;BME280;37304;52.216;6.874;2022-10-30T22:31:53;59726.88;;;-147.28;100.00
51229;BME280;37304;52.216;6.874;2022-10-30T22:36:53;59726.88;;;-147.28;100.00
51229;BME280;37304;52.216;6.874;2022-10-30T22:41:53;59726.88;;;-147.28;100.00
51229;BME280;37304;52.216;6.874;2022-10-30T22:46:54;59726.88;;;-147.28;100.00
51229;BME280;37304;52.216;6.874;2022-10-30T22:51:54;59726.88;;;-147.28;100.00
51229;BME280;37304;52.216;6.874;2022-10-30T22:56:54;59726.88;;;-147.28;100.00
51229;BME280;37304;52.216;6.874;2022-10-30T23:01:55;59726.88;;;-147.28;100.00
51229;BME280;37304;52.216;6.874;2022-10-30T23:06:55;59726.88;;;-147.28;100.00
51229;BME280;37304;52.216;6.874;2022-10-30T23:11:56;59726.88;;;-147.28;100.00
51229;BME280;37304;52.216;6.874;2022-10-30T23:16:56;59726.88;;;-147.28;100.00
51229;BME280;37304;52.216;6.874;2022-10-30T23:21:57;59726.88;;;-147.28;100.00
51229;BME280;37304;52.216;6.874;2022-10-30T23:26:57;59726.88;;;-147.28;100.00
51229;BME280;37304;52.216;6.874;2022-10-30T23:31:58;59726.88;;;-147.28;100.00
51229;BME280;37304;52.216;6.874;2022-10-30T23:36:58;59726.88;;;-147.28;100.00
51229;BME280;37304;52.216;6.874;2022-10-30T23:41:58;59726.88;;;-147.28;100.00
51229;BME280;37304;52.216;6.874;2022-10-30T23:46:59;59726.88;;;-147.28;100.00
51229;BME280;37304;52.216;6.874;2022-10-30T23:51:59;59726.88;;;-147.28;100.00
51229;BME280;37304;52.216;6.874;2022-10-30T23:56:59;59726.88;;;-147.28;100.00
